createdAt,value
2023-02-23T00:00:28.619Z,99959.59
2023-02-23T00:05:37.875Z,99954.38
2023-02-23T00:10:41.092Z,99948.31
2023-02-23T00:15:44.171Z,99953.53
2023-02-23T00:20:57.670Z,99954.22
2023-02-23T00:26:00.963Z,99949.13
2023-02-23T00:31:04.540Z,99951.59
2023-02-23T00:36:13.518Z,99949.84
2023-02-23T00:41:20.355Z,99953.63
2023-02-23T00:46:27.114Z,99953.91
2023-02-23T00:51:32.688Z,99953.63
2023-02-23T00:56:36.085Z,99949.25
2023-02-23T01:01:41.879Z,99955.31
2023-02-23T01:06:46.591Z,99957.50
2023-02-23T01:11:49.903Z,99957.25
2023-02-23T01:16:53.020Z,99957.25
2023-02-23T01:21:57.566Z,99963.44
2023-02-23T01:27:00.638Z,99959.84
2023-02-23T01:32:05.021Z,99946.69
2023-02-23T01:37:09.883Z,99940.50
2023-02-23T01:42:15.153Z,99937.88
2023-02-23T01:47:20.555Z,99935.28
2023-02-23T01:52:25.219Z,99931.72
2023-02-23T01:57:28.401Z,99927.44
2023-02-23T02:02:37.340Z,99923.88
2023-02-23T02:07:47.639Z,99915.09
2023-02-23T02:12:56.419Z,99917.00
2023-02-23T02:18:09.662Z,99913.97
2023-02-23T02:23:48.545Z,99907.22
2023-02-23T02:29:38.581Z,99901.44
2023-02-23T02:35:12.424Z,99899.25
2023-02-23T02:40:27.701Z,99898.56
2023-02-23T02:45:38.950Z,99899.94
2023-02-23T02:50:48.430Z,99891.13
2023-02-23T02:55:59.870Z,99892.66
2023-02-23T03:01:26.599Z,99892.78
2023-02-23T03:06:53.505Z,99890.88
2023-02-23T03:12:26.912Z,99888.38
2023-02-23T03:17:54.118Z,99892.66
2023-02-23T03:23:18.874Z,99887.28
2023-02-23T03:28:45.929Z,99896.66
2023-02-23T03:34:14.336Z,99897.91
2023-02-23T03:39:41.848Z,99899.28
2023-02-23T03:45:06.824Z,99900.72
2023-02-23T03:50:34.009Z,99899.34
2023-02-23T03:55:58.248Z,99904.03
2023-02-23T04:01:23.834Z,99915.16
2023-02-23T04:06:50.332Z,99919.88
2023-02-23T04:12:16.532Z,99913.69
2023-02-23T04:17:22.664Z,99915.06
2023-02-23T04:22:26.648Z,99913.13
2023-02-23T04:27:33.383Z,99910.25
2023-02-23T04:32:38.362Z,99918.66
2023-02-23T04:37:41.608Z,99915.19
2023-02-23T04:42:44.932Z,99913.31
2023-02-23T04:47:49.629Z,99916.59
2023-02-23T04:52:53.400Z,99906.97
2023-02-23T04:58:00.433Z,99905.31
2023-02-23T05:03:05.545Z,99905.19
2023-02-23T05:08:08.900Z,99908.59
2023-02-23T05:13:12.081Z,99915.47
2023-02-23T05:18:16.578Z,99902.56
2023-02-23T05:23:21.713Z,99903.66
2023-02-23T05:28:25.230Z,99915.34
2023-02-23T05:33:29.981Z,99900.91
2023-02-23T05:38:33.176Z,99903.78
2023-02-23T05:43:36.472Z,99909.00
2023-02-23T05:48:40.940Z,99906.66
2023-02-23T05:53:44.088Z,99910.63
2023-02-23T05:58:47.530Z,99909.94
2023-02-23T06:03:52.303Z,99914.63
2023-02-23T06:08:56.342Z,99921.88
2023-02-23T06:14:00.682Z,99927.25
2023-02-23T06:19:05.210Z,99928.06
2023-02-23T06:24:08.332Z,99931.66
2023-02-23T06:29:12.002Z,99930.69
2023-02-23T06:34:16.891Z,99934.00
2023-02-23T06:39:20.145Z,99939.91
2023-02-23T06:44:23.457Z,99944.84
2023-02-23T06:49:27.880Z,99940.19
2023-02-23T06:54:30.925Z,99949.28
2023-02-23T06:59:34.143Z,99953.16
2023-02-23T07:04:38.736Z,99955.34
2023-02-23T07:09:42.932Z,99959.09
2023-02-23T07:14:46.212Z,99962.81
2023-02-23T07:19:50.780Z,99961.16
2023-02-23T07:24:53.892Z,99970.25
2023-02-23T07:29:57.226Z,99967.94
2023-02-23T07:35:01.922Z,99973.28
2023-02-23T07:40:05.402Z,99977.84
2023-02-23T07:45:10.033Z,99976.34
2023-02-23T07:50:14.758Z,99992.84
2023-02-23T07:55:17.924Z,99988.75
2023-02-23T08:00:21.433Z,99983.34
2023-02-23T08:05:26.678Z,99986.13
2023-02-23T08:10:29.940Z,99992.16
2023-02-23T08:15:33.198Z,99988.69
2023-02-23T08:20:37.596Z,99983.19
2023-02-23T08:25:40.996Z,99990.06
2023-02-23T08:30:44.179Z,99995.94
2023-02-23T08:35:49.000Z,100000.22
2023-02-23T08:40:52.166Z,99988.97
2023-02-23T08:45:55.402Z,99984.44
2023-02-23T08:51:00.747Z,99993.34
2023-02-23T08:56:06.201Z,99986.09
2023-02-23T09:01:17.997Z,99983.28
2023-02-23T09:06:25.507Z,99995.41
2023-02-23T09:11:28.678Z,99985.34
2023-02-23T09:16:32.417Z,99997.31
2023-02-23T09:21:37.206Z,100001.72
2023-02-23T09:26:45.629Z,100004.13
2023-02-23T09:31:51.524Z,99995.91
2023-02-23T09:36:56.553Z,99988.41
2023-02-23T09:42:18.215Z,99996.47
2023-02-23T09:47:32.818Z,99997.22
2023-02-23T09:52:42.495Z,99997.31
2023-02-23T09:57:48.553Z,100012.81
2023-02-23T10:03:16.140Z,100010.66
2023-02-23T10:08:34.886Z,100004.13
2023-02-23T10:13:49.955Z,100006.28
2023-02-23T10:19:01.904Z,100011.72
2023-02-23T10:24:13.328Z,100014.19
2023-02-23T10:29:27.686Z,100019.84
2023-02-23T10:34:32.418Z,100013.56
2023-02-23T10:39:37.338Z,100017.00
2023-02-23T10:44:40.575Z,100018.81
2023-02-23T10:49:47.440Z,100011.25
2023-02-23T10:54:53.351Z,100004.66
2023-02-23T11:00:27.935Z,100008.75
2023-02-23T11:05:44.584Z,100005.75
2023-02-23T11:10:59.316Z,100001.78
2023-02-23T11:16:06.425Z,100001.63
2023-02-23T11:21:23.021Z,99989.25
2023-02-23T11:26:32.512Z,99984.63
2023-02-23T11:31:39.564Z,99976.97
2023-02-23T11:36:42.903Z,99976.13
2023-02-23T11:41:48.015Z,99970.88
2023-02-23T11:46:52.833Z,99970.84
2023-02-23T11:51:56.292Z,99965.75
2023-02-23T11:57:02.846Z,99955.03
2023-02-23T12:02:26.406Z,99953.19
2023-02-23T12:07:41.810Z,99954.38
2023-02-23T12:12:55.043Z,99958.97
2023-02-23T12:18:05.192Z,99952.53
2023-02-23T12:23:13.843Z,99949.41
2023-02-23T12:28:30.282Z,99948.56
2023-02-23T12:33:39.876Z,99941.97
2023-02-23T12:38:53.119Z,99936.50
2023-02-23T12:44:03.663Z,99931.06
2023-02-23T12:49:17.287Z,99942.97
2023-02-23T12:54:32.582Z,99935.91
2023-02-23T12:59:55.279Z,99937.91
2023-02-23T13:05:26.802Z,99934.56
2023-02-23T13:10:42.132Z,99941.03
2023-02-23T13:16:01.255Z,99930.03
2023-02-23T13:21:11.250Z,99934.19
2023-02-23T13:26:25.049Z,99926.41
2023-02-23T13:31:33.604Z,99926.28
2023-02-23T13:36:38.033Z,99923.19
2023-02-23T13:41:46.817Z,99919.78
2023-02-23T13:46:58.826Z,99914.00
2023-02-23T13:52:11.106Z,99914.69
2023-02-23T13:57:16.847Z,99917.53
2023-02-23T14:02:34.670Z,99917.03
2023-02-23T14:07:44.424Z,99914.72
2023-02-23T14:13:06.491Z,99912.25
2023-02-23T14:18:35.246Z,99921.31
2023-02-23T14:23:54.844Z,99919.84
2023-02-23T14:29:26.774Z,99910.94
2023-02-23T14:34:57.062Z,99917.41
2023-02-23T14:40:45.118Z,99916.06
2023-02-23T14:46:06.320Z,99911.66
2023-02-23T14:51:26.241Z,99907.53
2023-02-23T14:56:43.258Z,99908.88
2023-02-23T15:01:47.875Z,99902.56
2023-02-23T15:06:56.304Z,99894.69
2023-02-23T15:12:13.704Z,99886.31
2023-02-23T15:17:20.867Z,99903.41
2023-02-23T15:22:29.957Z,99898.31
2023-02-23T15:27:43.043Z,99899.31
2023-02-23T15:32:46.432Z,99897.66
2023-02-23T15:37:59.666Z,99897.19
2023-02-23T15:43:14.705Z,99906.34
2023-02-23T15:48:22.804Z,99894.31
2023-02-23T15:53:32.033Z,99896.81
2023-02-23T15:58:56.440Z,99905.28
2023-02-23T16:04:03.549Z,99893.38
2023-02-23T16:09:27.954Z,99898.75
2023-02-23T16:14:35.520Z,99909.16
2023-02-23T16:19:41.559Z,99905.66
2023-02-23T16:24:46.736Z,99898.22
2023-02-23T16:30:00.580Z,99897.22
2023-02-23T16:35:11.495Z,99904.78
2023-02-23T16:40:16.334Z,99895.22
2023-02-23T16:45:22.556Z,99904.13
2023-02-23T16:50:27.695Z,99904.56
2023-02-23T16:55:39.461Z,99899.78
2023-02-23T17:00:42.810Z,99904.59
2023-02-23T17:05:57.077Z,99913.72
2023-02-23T17:11:03.014Z,99907.56
2023-02-23T17:16:07.997Z,99909.53
2023-02-23T17:21:13.834Z,99913.78
2023-02-23T17:26:28.134Z,99914.63
2023-02-23T17:31:32.127Z,99917.25
2023-02-23T17:36:35.491Z,99925.94
2023-02-23T17:41:40.344Z,99916.84
2023-02-23T17:46:43.974Z,99910.66
2023-02-23T17:51:47.409Z,99914.41
2023-02-23T17:56:52.318Z,99911.78
2023-02-23T18:01:56.315Z,99918.66
2023-02-23T18:06:59.855Z,99913.41
2023-02-23T18:12:05.070Z,99918.97
2023-02-23T18:17:08.216Z,99921.06
2023-02-23T18:22:11.864Z,99923.00
2023-02-23T18:27:16.554Z,99908.53
2023-02-23T18:32:19.973Z,99919.59
2023-02-23T18:37:25.374Z,99914.97
2023-02-23T18:42:31.693Z,99925.06
2023-02-23T18:47:35.138Z,99929.38
2023-02-23T18:52:40.816Z,99921.84
2023-02-23T18:57:45.688Z,99922.44
2023-02-23T19:02:49.410Z,99927.13
2023-02-23T19:07:52.842Z,99931.25
2023-02-23T19:12:57.236Z,99929.91
2023-02-23T19:18:00.386Z,99928.69
2023-02-23T19:23:04.206Z,99925.81
2023-02-23T19:28:10.012Z,99928.72
2023-02-23T19:33:14.364Z,99921.28
2023-02-23T19:38:17.483Z,99919.94
2023-02-23T19:43:22.127Z,99921.72
2023-02-23T19:48:27.534Z,99915.38
2023-02-23T19:53:31.644Z,99919.38
2023-02-23T19:58:39.029Z,99927.13
2023-02-23T20:03:43.320Z,99921.19
2023-02-23T20:08:48.305Z,99930.53
2023-02-23T20:13:53.090Z,99923.94
2023-02-23T20:18:57.036Z,99928.25
2023-02-23T20:24:01.608Z,99922.75
2023-02-23T20:29:10.965Z,99917.13
2023-02-23T20:34:15.236Z,99916.72
2023-02-23T20:39:19.388Z,99913.56
2023-02-23T20:44:25.312Z,99912.59
2023-02-23T20:49:29.765Z,99909.28
2023-02-23T20:54:45.539Z,99912.19
2023-02-23T20:59:52.994Z,99909.69
2023-02-23T21:04:56.928Z,99903.91
2023-02-23T21:10:05.512Z,99903.38
2023-02-23T21:15:17.159Z,99898.16
2023-02-23T21:20:30.148Z,99900.63
2023-02-23T21:25:33.761Z,99906.81
2023-02-23T21:30:41.695Z,99908.63
2023-02-23T21:35:45.115Z,99904.19
2023-02-23T21:40:49.286Z,99904.59
2023-02-23T21:45:54.240Z,99902.16
2023-02-23T21:51:03.956Z,99909.16
2023-02-23T21:56:11.856Z,99899.94
2023-02-23T22:01:19.752Z,99899.25
2023-02-23T22:06:25.211Z,99900.63
2023-02-23T22:11:30.001Z,99906.97
2023-02-23T22:16:36.906Z,99899.97
2023-02-23T22:21:41.730Z,99896.66
2023-02-23T22:26:50.752Z,99893.50
2023-02-23T22:31:55.643Z,99888.53
2023-02-23T22:36:59.306Z,99883.03
2023-02-23T22:42:09.378Z,99882.63
2023-02-23T22:47:14.271Z,99868.88
2023-02-23T22:52:17.550Z,99865.72
2023-02-23T22:57:20.735Z,99860.75
2023-02-23T23:02:25.287Z,99863.50
2023-02-23T23:07:29.360Z,99862.13
2023-02-23T23:12:34.399Z,99845.78
2023-02-23T23:17:39.772Z,99847.53
2023-02-23T23:22:43.075Z,99851.97
2023-02-23T23:27:46.236Z,99850.31
2023-02-23T23:32:50.989Z,99851.41
2023-02-23T23:37:54.377Z,99842.03
2023-02-23T23:42:57.755Z,99843.28
2023-02-23T23:48:09.468Z,99840.66
2023-02-23T23:53:14.597Z,99834.75
2023-02-23T23:58:18.535Z,99843.69
